sensor_id;sensor_type;location;lat;lon;timestamp;temperature;humidity
36660;DHT22;22654;51.054;3.654;2023-03-24T00:00:51;13.70;99.90
36660;DHT22;22654;51.054;3.654;2023-03-24T00:03:17;13.70;99.90
36660;DHT22;22654;51.054;3.654;2023-03-24T00:05:43;13.80;99.90
36660;DHT22;22654;51.054;3.654;2023-03-24T00:08:09;13.70;99.90
36660;DHT22;22654;51.054;3.654;2023-03-24T00:10:35;13.80;99.90
36660;DHT22;22654;51.054;3.654;2023-03-24T00:13:01;13.80;99.90
36660;DHT22;22654;51.054;3.654;2023-03-24T00:15:28;13.80;99.90
36660;DHT22;22654;51.054;3.654;2023-03-24T00:17:54;13.90;99.90
36660;DHT22;22654;51.054;3.654;2023-03-24T00:20:23;13.80;99.90
36660;DHT22;22654;51.054;3.654;2023-03-24T00:22:51;13.90;99.90
36660;DHT22;22654;51.054;3.654;2023-03-24T00:25:21;13.80;99.90
36660;DHT22;22654;51.054;3.654;2023-03-24T00:27:48;13.80;99.90
36660;DHT22;22654;51.054;3.654;2023-03-24T00:30:16;13.90;99.90
36660;DHT22;22654;51.054;3.654;2023-03-24T00:32:42;14.00;99.90
36660;DHT22;22654;51.054;3.654;2023-03-24T00:35:09;13.90;99.90
36660;DHT22;22654;51.054;3.654;2023-03-24T00:37:37;14.00;99.90
36660;DHT22;22654;51.054;3.654;2023-03-24T00:40:05;14.10;99.90
36660;DHT22;22654;51.054;3.654;2023-03-24T00:42:33;14.00;99.90
36660;DHT22;22654;51.054;3.654;2023-03-24T00:45:00;13.90;99.90
36660;DHT22;22654;51.054;3.654;2023-03-24T00:47:28;13.90;99.90
36660;DHT22;22654;51.054;3.654;2023-03-24T00:49:55;13.80;99.90
36660;DHT22;22654;51.054;3.654;2023-03-24T00:52:22;13.70;99.90
36660;DHT22;22654;51.054;3.654;2023-03-24T00:54:50;13.60;99.90
36660;DHT22;22654;51.054;3.654;2023-03-24T00:57:17;13.60;99.90
36660;DHT22;22654;51.054;3.654;2023-03-24T00:59:51;13.60;99.90
36660;DHT22;22654;51.054;3.654;2023-03-24T01:02:21;13.70;99.90
36660;DHT22;22654;51.054;3.654;2023-03-24T01:04:56;13.60;99.90
36660;DHT22;22654;51.054;3.654;2023-03-24T01:07:22;13.60;99.90
36660;DHT22;22654;51.054;3.654;2023-03-24T01:09:48;13.50;99.90
36660;DHT22;22654;51.054;3.654;2023-03-24T01:12:26;13.50;99.90
36660;DHT22;22654;51.054;3.654;2023-03-24T01:14:53;13.40;99.90
36660;DHT22;22654;51.054;3.654;2023-03-24T01:17:19;13.40;99.90
36660;DHT22;22654;51.054;3.654;2023-03-24T01:19:47;13.30;99.90
36660;DHT22;22654;51.054;3.654;2023-03-24T01:22:13;13.20;99.90
36660;DHT22;22654;51.054;3.654;2023-03-24T01:24:42;13.20;99.90
36660;DHT22;22654;51.054;3.654;2023-03-24T01:27:09;13.00;99.90
36660;DHT22;22654;51.054;3.654;2023-03-24T01:29:35;13.00;99.90
36660;DHT22;22654;51.054;3.654;2023-03-24T01:32:02;12.80;99.90
36660;DHT22;22654;51.054;3.654;2023-03-24T01:34:27;12.80;99.90
36660;DHT22;22654;51.054;3.654;2023-03-24T01:36:53;12.70;99.90
36660;DHT22;22654;51.054;3.654;2023-03-24T01:39:19;12.60;99.90
36660;DHT22;22654;51.054;3.654;2023-03-24T01:41:45;12.50;99.90
36660;DHT22;22654;51.054;3.654;2023-03-24T01:46:55;12.40;99.90
36660;DHT22;22654;51.054;3.654;2023-03-24T01:49:22;12.40;99.90
36660;DHT22;22654;51.054;3.654;2023-03-24T01:51:51;12.30;99.90
36660;DHT22;22654;51.054;3.654;2023-03-24T01:57:05;12.20;99.90
36660;DHT22;22654;51.054;3.654;2023-03-24T01:59:36;12.10;99.90
36660;DHT22;22654;51.054;3.654;2023-03-24T02:02:12;12.00;99.90
36660;DHT22;22654;51.054;3.654;2023-03-24T02:04:50;12.00;99.90
36660;DHT22;22654;51.054;3.654;2023-03-24T02:10:02;12.00;99.90
36660;DHT22;22654;51.054;3.654;2023-03-24T02:12:30;12.00;99.90
36660;DHT22;22654;51.054;3.654;2023-03-24T02:14:57;12.00;99.90
36660;DHT22;22654;51.054;3.654;2023-03-24T02:17:30;11.90;99.90
36660;DHT22;22654;51.054;3.654;2023-03-24T02:22:40;11.80;99.90
36660;DHT22;22654;51.054;3.654;2023-03-24T02:27:52;11.90;99.90
36660;DHT22;22654;51.054;3.654;2023-03-24T02:45:53;11.50;99.90
36660;DHT22;22654;51.054;3.654;2023-03-24T02:50:59;11.60;99.90
36660;DHT22;22654;51.054;3.654;2023-03-24T02:53:34;11.50;99.90
36660;DHT22;22654;51.054;3.654;2023-03-24T02:56:28;11.40;99.90
36660;DHT22;22654;51.054;3.654;2023-03-24T02:59:07;11.20;99.90
36660;DHT22;22654;51.054;3.654;2023-03-24T03:01:47;11.10;99.90
36660;DHT22;22654;51.054;3.654;2023-03-24T03:04:46;11.10;99.90
36660;DHT22;22654;51.054;3.654;2023-03-24T03:07:16;11.10;99.90
36660;DHT22;22654;51.054;3.654;2023-03-24T03:09:48;11.20;99.90
36660;DHT22;22654;51.054;3.654;2023-03-24T03:12:15;11.40;99.90
36660;DHT22;22654;51.054;3.654;2023-03-24T03:14:53;11.20;99.90
36660;DHT22;22654;51.054;3.654;2023-03-24T03:17:25;11.20;99.90
36660;DHT22;22654;51.054;3.654;2023-03-24T03:19:56;11.10;99.90
36660;DHT22;22654;51.054;3.654;2023-03-24T03:22:27;11.10;99.90
36660;DHT22;22654;51.054;3.654;2023-03-24T03:24:54;11.10;99.90
36660;DHT22;22654;51.054;3.654;2023-03-24T03:27:24;11.10;99.90
36660;DHT22;22654;51.054;3.654;2023-03-24T03:29:57;11.10;99.90
36660;DHT22;22654;51.054;3.654;2023-03-24T03:32:29;11.10;99.90
36660;DHT22;22654;51.054;3.654;2023-03-24T03:35:15;11.10;99.90
36660;DHT22;22654;51.054;3.654;2023-03-24T03:41:04;10.80;99.90
36660;DHT22;22654;51.054;3.654;2023-03-24T03:43:12;10.70;99.90
36660;DHT22;22654;51.054;3.654;2023-03-24T03:45:38;10.80;99.90
36660;DHT22;22654;51.054;3.654;2023-03-24T03:48:05;10.80;99.90
36660;DHT22;22654;51.054;3.654;2023-03-24T03:50:31;10.90;99.90
36660;DHT22;22654;51.054;3.654;2023-03-24T03:53:02;11.00;99.90
36660;DHT22;22654;51.054;3.654;2023-03-24T03:55:28;11.00;99.90
36660;DHT22;22654;51.054;3.654;2023-03-24T03:57:55;10.90;99.90
36660;DHT22;22654;51.054;3.654;2023-03-24T04:00:41;10.90;99.90
36660;DHT22;22654;51.054;3.654;2023-03-24T04:03:39;10.80;99.90
36660;DHT22;22654;51.054;3.654;2023-03-24T04:18:15;10.60;99.90
36660;DHT22;22654;51.054;3.654;2023-03-24T04:21:12;10.60;99.90
36660;DHT22;22654;51.054;3.654;2023-03-24T04:23:46;10.80;99.90
36660;DHT22;22654;51.054;3.654;2023-03-24T04:29:08;10.80;99.90
36660;DHT22;22654;51.054;3.654;2023-03-24T04:31:41;10.80;99.90
36660;DHT22;22654;51.054;3.654;2023-03-24T04:34:10;10.70;99.90
36660;DHT22;22654;51.054;3.654;2023-03-24T04:36:49;10.60;99.90
36660;DHT22;22654;51.054;3.654;2023-03-24T04:39:37;10.40;99.90
36660;DHT22;22654;51.054;3.654;2023-03-24T04:42:13;10.30;99.90
36660;DHT22;22654;51.054;3.654;2023-03-24T04:44:40;10.20;99.90
36660;DHT22;22654;51.054;3.654;2023-03-24T04:47:25;10.20;99.90
36660;DHT22;22654;51.054;3.654;2023-03-24T04:50:12;10.20;99.90
36660;DHT22;22654;51.054;3.654;2023-03-24T04:52:39;10.10;99.90
36660;DHT22;22654;51.054;3.654;2023-03-24T04:58:10;10.10;99.90
36660;DHT22;22654;51.054;3.654;2023-03-24T05:00:35;10.10;99.90
36660;DHT22;22654;51.054;3.654;2023-03-24T05:03:02;10.00;99.90
36660;DHT22;22654;51.054;3.654;2023-03-24T05:05:29;10.00;99.90
36660;DHT22;22654;51.054;3.654;2023-03-24T05:07:55;9.90;99.90
36660;DHT22;22654;51.054;3.654;2023-03-24T05:10:24;9.80;99.90
36660;DHT22;22654;51.054;3.654;2023-03-24T05:12:54;9.80;99.90
36660;DHT22;22654;51.054;3.654;2023-03-24T05:15:26;9.70;99.90
36660;DHT22;22654;51.054;3.654;2023-03-24T05:17:59;9.90;99.90
36660;DHT22;22654;51.054;3.654;2023-03-24T05:20:25;9.90;99.90
36660;DHT22;22654;51.054;3.654;2023-03-24T05:22:52;9.80;99.90
36660;DHT22;22654;51.054;3.654;2023-03-24T05:25:18;9.80;99.90
36660;DHT22;22654;51.054;3.654;2023-03-24T05:27:44;9.80;99.90
36660;DHT22;22654;51.054;3.654;2023-03-24T05:30:22;9.70;99.90
36660;DHT22;22654;51.054;3.654;2023-03-24T05:32:54;9.70;99.90
36660;DHT22;22654;51.054;3.654;2023-03-24T05:35:20;9.70;99.90
36660;DHT22;22654;51.054;3.654;2023-03-24T05:37:47;9.80;99.90
36660;DHT22;22654;51.054;3.654;2023-03-24T05:40:13;9.90;99.90
36660;DHT22;22654;51.054;3.654;2023-03-24T05:43:06;10.00;99.90
36660;DHT22;22654;51.054;3.654;2023-03-24T05:45:38;10.10;99.90
36660;DHT22;22654;51.054;3.654;2023-03-24T05:48:04;10.30;99.90
36660;DHT22;22654;51.054;3.654;2023-03-24T05:50:50;10.30;99.90
36660;DHT22;22654;51.054;3.654;2023-03-24T05:53:16;10.50;99.90
36660;DHT22;22654;51.054;3.654;2023-03-24T05:56:08;10.70;99.90
36660;DHT22;22654;51.054;3.654;2023-03-24T05:58:58;10.70;99.90
36660;DHT22;22654;51.054;3.654;2023-03-24T06:01:42;10.80;99.90
36660;DHT22;22654;51.054;3.654;2023-03-24T06:04:18;10.80;99.90
36660;DHT22;22654;51.054;3.654;2023-03-24T06:06:46;11.00;99.90
36660;DHT22;22654;51.054;3.654;2023-03-24T06:09:16;11.00;99.90
36660;DHT22;22654;51.054;3.654;2023-03-24T06:11:42;11.20;99.90
36660;DHT22;22654;51.054;3.654;2023-03-24T06:14:09;11.20;99.90
36660;DHT22;22654;51.054;3.654;2023-03-24T06:16:46;11.20;99.90
36660;DHT22;22654;51.054;3.654;2023-03-24T06:19:16;11.30;99.90
36660;DHT22;22654;51.054;3.654;2023-03-24T06:22:11;11.40;99.90
36660;DHT22;22654;51.054;3.654;2023-03-24T06:24:38;11.40;99.90
36660;DHT22;22654;51.054;3.654;2023-03-24T06:27:07;11.40;99.90
36660;DHT22;22654;51.054;3.654;2023-03-24T06:29:38;11.60;99.90
36660;DHT22;22654;51.054;3.654;2023-03-24T06:32:04;11.50;99.90
36660;DHT22;22654;51.054;3.654;2023-03-24T06:34:41;11.70;99.90
36660;DHT22;22654;51.054;3.654;2023-03-24T06:37:42;11.70;99.90
36660;DHT22;22654;51.054;3.654;2023-03-24T06:40:11;11.50;99.90
36660;DHT22;22654;51.054;3.654;2023-03-24T06:42:47;11.60;99.90
36660;DHT22;22654;51.054;3.654;2023-03-24T06:45:14;11.70;99.90
36660;DHT22;22654;51.054;3.654;2023-03-24T06:47:40;11.90;99.90
36660;DHT22;22654;51.054;3.654;2023-03-24T06:50:11;11.90;99.90
36660;DHT22;22654;51.054;3.654;2023-03-24T06:52:37;12.00;99.90
36660;DHT22;22654;51.054;3.654;2023-03-24T06:55:06;12.00;99.90
36660;DHT22;22654;51.054;3.654;2023-03-24T06:57:33;12.00;99.90
36660;DHT22;22654;51.054;3.654;2023-03-24T07:00:25;12.00;99.90
36660;DHT22;22654;51.054;3.654;2023-03-24T07:03:02;12.00;99.90
36660;DHT22;22654;51.054;3.654;2023-03-24T07:05:27;12.10;99.90
36660;DHT22;22654;51.054;3.654;2023-03-24T07:07:54;12.30;99.90
36660;DHT22;22654;51.054;3.654;2023-03-24T07:10:45;12.40;99.90
36660;DHT22;22654;51.054;3.654;2023-03-24T07:13:14;12.60;99.90
36660;DHT22;22654;51.054;3.654;2023-03-24T07:15:41;12.70;99.90
36660;DHT22;22654;51.054;3.654;2023-03-24T07:18:08;12.60;99.90
36660;DHT22;22654;51.054;3.654;2023-03-24T07:20:44;12.60;99.90
36660;DHT22;22654;51.054;3.654;2023-03-24T07:23:16;12.70;99.90
36660;DHT22;22654;51.054;3.654;2023-03-24T07:26:00;12.60;99.90
36660;DHT22;22654;51.054;3.654;2023-03-24T07:28:44;12.60;99.90
36660;DHT22;22654;51.054;3.654;2023-03-24T07:31:11;12.60;99.90
36660;DHT22;22654;51.054;3.654;2023-03-24T07:33:38;12.60;99.90
36660;DHT22;22654;51.054;3.654;2023-03-24T07:36:05;12.80;99.90
36660;DHT22;22654;51.054;3.654;2023-03-24T07:38:33;13.00;99.90
36660;DHT22;22654;51.054;3.654;2023-03-24T07:41:04;13.10;99.90
36660;DHT22;22654;51.054;3.654;2023-03-24T07:43:33;13.20;99.90
36660;DHT22;22654;51.054;3.654;2023-03-24T07:46:18;13.20;99.90
36660;DHT22;22654;51.054;3.654;2023-03-24T07:48:44;13.30;99.90
36660;DHT22;22654;51.054;3.654;2023-03-24T07:51:10;13.50;99.90
36660;DHT22;22654;51.054;3.654;2023-03-24T07:53:52;14.00;99.90
36660;DHT22;22654;51.054;3.654;2023-03-24T07:56:32;14.50;99.90
36660;DHT22;22654;51.054;3.654;2023-03-24T07:59:00;14.80;99.90
36660;DHT22;22654;51.054;3.654;2023-03-24T08:01:58;14.90;99.90
36660;DHT22;22654;51.054;3.654;2023-03-24T08:04:35;15.00;99.90
36660;DHT22;22654;51.054;3.654;2023-03-24T08:07:09;15.00;99.90
36660;DHT22;22654;51.054;3.654;2023-03-24T08:09:37;15.00;99.90
36660;DHT22;22654;51.054;3.654;2023-03-24T08:12:06;14.80;99.90
36660;DHT22;22654;51.054;3.654;2023-03-24T08:14:31;14.90;99.90
36660;DHT22;22654;51.054;3.654;2023-03-24T08:16:58;14.80;99.90
36660;DHT22;22654;51.054;3.654;2023-03-24T08:19:23;14.70;99.90
36660;DHT22;22654;51.054;3.654;2023-03-24T08:21:53;14.70;99.90
36660;DHT22;22654;51.054;3.654;2023-03-24T08:24:19;14.70;99.90
36660;DHT22;22654;51.054;3.654;2023-03-24T08:26:44;14.80;99.90
36660;DHT22;22654;51.054;3.654;2023-03-24T08:29:11;14.70;99.90
36660;DHT22;22654;51.054;3.654;2023-03-24T08:31:37;14.80;99.90
36660;DHT22;22654;51.054;3.654;2023-03-24T08:34:03;14.80;99.90
36660;DHT22;22654;51.054;3.654;2023-03-24T08:36:31;14.90;99.90
36660;DHT22;22654;51.054;3.654;2023-03-24T08:38:56;15.00;99.90
36660;DHT22;22654;51.054;3.654;2023-03-24T08:41:22;15.00;99.90
36660;DHT22;22654;51.054;3.654;2023-03-24T08:43:55;14.90;99.90
36660;DHT22;22654;51.054;3.654;2023-03-24T08:46:21;15.00;99.90
36660;DHT22;22654;51.054;3.654;2023-03-24T08:48:47;14.90;99.90
36660;DHT22;22654;51.054;3.654;2023-03-24T08:51:14;14.90;99.90
36660;DHT22;22654;51.054;3.654;2023-03-24T08:53:39;14.90;99.90
36660;DHT22;22654;51.054;3.654;2023-03-24T08:56:05;15.10;99.90
36660;DHT22;22654;51.054;3.654;2023-03-24T08:58:32;15.00;99.90
36660;DHT22;22654;51.054;3.654;2023-03-24T09:00:57;14.80;99.90
36660;DHT22;22654;51.054;3.654;2023-03-24T09:03:23;14.80;99.90
36660;DHT22;22654;51.054;3.654;2023-03-24T09:05:49;14.70;99.90
36660;DHT22;22654;51.054;3.654;2023-03-24T09:08:16;14.60;99.90
36660;DHT22;22654;51.054;3.654;2023-03-24T09:10:43;14.60;99.90
36660;DHT22;22654;51.054;3.654;2023-03-24T09:13:11;14.80;99.90
36660;DHT22;22654;51.054;3.654;2023-03-24T09:15:37;15.10;99.90
36660;DHT22;22654;51.054;3.654;2023-03-24T09:18:03;15.10;99.90
36660;DHT22;22654;51.054;3.654;2023-03-24T09:20:29;15.20;99.90
36660;DHT22;22654;51.054;3.654;2023-03-24T09:22:55;15.30;99.90
36660;DHT22;22654;51.054;3.654;2023-03-24T09:25:21;15.50;99.90
36660;DHT22;22654;51.054;3.654;2023-03-24T09:27:47;15.80;99.90
36660;DHT22;22654;51.054;3.654;2023-03-24T09:30:13;15.80;99.90
36660;DHT22;22654;51.054;3.654;2023-03-24T09:32:40;15.60;99.90
36660;DHT22;22654;51.054;3.654;2023-03-24T09:35:06;15.40;99.90
36660;DHT22;22654;51.054;3.654;2023-03-24T09:37:33;15.30;99.90
36660;DHT22;22654;51.054;3.654;2023-03-24T09:39:59;14.80;99.90
36660;DHT22;22654;51.054;3.654;2023-03-24T09:42:27;14.40;99.90
36660;DHT22;22654;51.054;3.654;2023-03-24T09:44:56;14.30;99.90
36660;DHT22;22654;51.054;3.654;2023-03-24T09:47:38;14.30;99.90
36660;DHT22;22654;51.054;3.654;2023-03-24T09:50:20;14.40;99.90
36660;DHT22;22654;51.054;3.654;2023-03-24T09:52:47;14.50;99.90
36660;DHT22;22654;51.054;3.654;2023-03-24T09:55:15;14.20;99.90
36660;DHT22;22654;51.054;3.654;2023-03-24T09:57:44;13.70;99.90
36660;DHT22;22654;51.054;3.654;2023-03-24T10:00:15;13.40;99.90
36660;DHT22;22654;51.054;3.654;2023-03-24T10:02:41;13.30;99.90
36660;DHT22;22654;51.054;3.654;2023-03-24T10:05:18;13.40;99.90
36660;DHT22;22654;51.054;3.654;2023-03-24T10:07:48;13.50;99.90
36660;DHT22;22654;51.054;3.654;2023-03-24T10:10:28;13.60;99.90
36660;DHT22;22654;51.054;3.654;2023-03-24T10:12:58;13.70;99.90
36660;DHT22;22654;51.054;3.654;2023-03-24T10:15:29;14.00;99.90
36660;DHT22;22654;51.054;3.654;2023-03-24T10:25:36;14.30;99.90
36660;DHT22;22654;51.054;3.654;2023-03-24T10:28:26;14.20;99.90
36660;DHT22;22654;51.054;3.654;2023-03-24T10:30:56;13.90;99.90
36660;DHT22;22654;51.054;3.654;2023-03-24T10:33:24;13.70;99.90
36660;DHT22;22654;51.054;3.654;2023-03-24T10:36:01;13.40;99.90
36660;DHT22;22654;51.054;3.654;2023-03-24T10:38:28;13.40;99.90
36660;DHT22;22654;51.054;3.654;2023-03-24T10:40:54;13.50;99.90
36660;DHT22;22654;51.054;3.654;2023-03-24T10:43:20;13.60;99.90
36660;DHT22;22654;51.054;3.654;2023-03-24T10:45:47;13.70;99.90
36660;DHT22;22654;51.054;3.654;2023-03-24T10:48:15;13.80;99.90
36660;DHT22;22654;51.054;3.654;2023-03-24T10:50:57;13.90;99.90
36660;DHT22;22654;51.054;3.654;2023-03-24T10:53:24;14.20;99.90
36660;DHT22;22654;51.054;3.654;2023-03-24T10:55:50;14.50;99.90
36660;DHT22;22654;51.054;3.654;2023-03-24T10:58:26;14.80;99.90
36660;DHT22;22654;51.054;3.654;2023-03-24T11:00:52;15.10;99.90
36660;DHT22;22654;51.054;3.654;2023-03-24T11:03:22;15.40;99.90
36660;DHT22;22654;51.054;3.654;2023-03-24T11:05:50;15.50;99.90
36660;DHT22;22654;51.054;3.654;2023-03-24T11:10:53;15.90;99.90
36660;DHT22;22654;51.054;3.654;2023-03-24T11:13:31;16.20;99.90
36660;DHT22;22654;51.054;3.654;2023-03-24T11:18:29;15.80;99.90
36660;DHT22;22654;51.054;3.654;2023-03-24T11:20:56;15.60;99.90
36660;DHT22;22654;51.054;3.654;2023-03-24T11:23:25;15.80;99.90
36660;DHT22;22654;51.054;3.654;2023-03-24T11:26:00;16.00;99.90
36660;DHT22;22654;51.054;3.654;2023-03-24T11:28:26;16.00;99.90
36660;DHT22;22654;51.054;3.654;2023-03-24T11:30:53;16.10;99.90
36660;DHT22;22654;51.054;3.654;2023-03-24T11:33:29;16.40;99.90
36660;DHT22;22654;51.054;3.654;2023-03-24T11:36:01;16.80;99.90
36660;DHT22;22654;51.054;3.654;2023-03-24T11:38:31;16.90;99.90
36660;DHT22;22654;51.054;3.654;2023-03-24T11:40:58;17.00;99.90
36660;DHT22;22654;51.054;3.654;2023-03-24T11:43:29;17.10;99.90
36660;DHT22;22654;51.054;3.654;2023-03-24T11:51:04;15.90;99.90
36660;DHT22;22654;51.054;3.654;2023-03-24T11:53:33;15.60;99.90
36660;DHT22;22654;51.054;3.654;2023-03-24T11:56:07;15.20;99.90
36660;DHT22;22654;51.054;3.654;2023-03-24T11:58:47;14.70;99.90
36660;DHT22;22654;51.054;3.654;2023-03-24T12:11:21;14.70;99.90
36660;DHT22;22654;51.054;3.654;2023-03-24T12:13:50;14.70;99.90
36660;DHT22;22654;51.054;3.654;2023-03-24T12:19:07;15.20;99.90
36660;DHT22;22654;51.054;3.654;2023-03-24T12:24:40;15.40;99.90
36660;DHT22;22654;51.054;3.654;2023-03-24T12:27:12;15.90;99.90
36660;DHT22;22654;51.054;3.654;2023-03-24T12:29:50;15.80;99.90
36660;DHT22;22654;51.054;3.654;2023-03-24T12:32:25;15.80;99.90
36660;DHT22;22654;51.054;3.654;2023-03-24T12:42:38;16.10;99.90
36660;DHT22;22654;51.054;3.654;2023-03-24T12:58:03;17.00;99.90
36660;DHT22;22654;51.054;3.654;2023-03-24T13:00:30;17.50;99.90
36660;DHT22;22654;51.054;3.654;2023-03-24T13:02:59;17.70;99.90
36660;DHT22;22654;51.054;3.654;2023-03-24T13:05:27;17.90;99.90
36660;DHT22;22654;51.054;3.654;2023-03-24T13:07:55;18.00;99.90
36660;DHT22;22654;51.054;3.654;2023-03-24T13:10:26;18.20;99.90
36660;DHT22;22654;51.054;3.654;2023-03-24T13:12:55;18.40;99.90
36660;DHT22;22654;51.054;3.654;2023-03-24T13:15:23;18.20;99.90
36660;DHT22;22654;51.054;3.654;2023-03-24T13:18:33;18.00;99.90
36660;DHT22;22654;51.054;3.654;2023-03-24T13:20:41;17.70;99.90
36660;DHT22;22654;51.054;3.654;2023-03-24T13:23:16;17.20;99.90
36660;DHT22;22654;51.054;3.654;2023-03-24T13:25:50;16.90;99.90
36660;DHT22;22654;51.054;3.654;2023-03-24T13:28:20;16.50;99.90
36660;DHT22;22654;51.054;3.654;2023-03-24T13:30:47;16.40;99.90
36660;DHT22;22654;51.054;3.654;2023-03-24T13:33:15;15.90;99.90
36660;DHT22;22654;51.054;3.654;2023-03-24T13:35:51;15.10;99.90
36660;DHT22;22654;51.054;3.654;2023-03-24T13:40:56;14.10;99.90
36660;DHT22;22654;51.054;3.654;2023-03-24T13:43:23;14.00;99.90
36660;DHT22;22654;51.054;3.654;2023-03-24T13:45:51;13.90;99.90
36660;DHT22;22654;51.054;3.654;2023-03-24T13:53:53;14.10;99.90
36660;DHT22;22654;51.054;3.654;2023-03-24T13:56:34;14.00;99.90
36660;DHT22;22654;51.054;3.654;2023-03-24T14:01:31;14.00;99.90
36660;DHT22;22654;51.054;3.654;2023-03-24T14:06:46;14.20;99.90
36660;DHT22;22654;51.054;3.654;2023-03-24T14:09:22;14.50;99.90
36660;DHT22;22654;51.054;3.654;2023-03-24T14:19:21;14.80;99.90
36660;DHT22;22654;51.054;3.654;2023-03-24T14:24:37;15.40;99.90
36660;DHT22;22654;51.054;3.654;2023-03-24T14:29:51;16.50;99.90
36660;DHT22;22654;51.054;3.654;2023-03-24T14:32:17;16.90;99.90
36660;DHT22;22654;51.054;3.654;2023-03-24T14:34:53;17.00;99.90
36660;DHT22;22654;51.054;3.654;2023-03-24T14:37:21;17.20;99.90
36660;DHT22;22654;51.054;3.654;2023-03-24T14:39:47;17.40;99.90
36660;DHT22;22654;51.054;3.654;2023-03-24T14:45:02;17.50;99.90
36660;DHT22;22654;51.054;3.654;2023-03-24T14:47:35;17.30;99.90
36660;DHT22;22654;51.054;3.654;2023-03-24T14:52:58;16.70;99.90
36660;DHT22;22654;51.054;3.654;2023-03-24T14:55:24;16.40;99.90
36660;DHT22;22654;51.054;3.654;2023-03-24T14:57:52;16.20;99.90
36660;DHT22;22654;51.054;3.654;2023-03-24T15:03:00;16.00;99.90
36660;DHT22;22654;51.054;3.654;2023-03-24T15:16:22;15.90;99.90
36660;DHT22;22654;51.054;3.654;2023-03-24T15:18:47;15.80;99.90
36660;DHT22;22654;51.054;3.654;2023-03-24T15:23:52;15.70;99.90
36660;DHT22;22654;51.054;3.654;2023-03-24T15:26:18;15.80;99.90
36660;DHT22;22654;51.054;3.654;2023-03-24T15:28:52;15.90;99.90
36660;DHT22;22654;51.054;3.654;2023-03-24T15:31:18;16.20;99.90
36660;DHT22;22654;51.054;3.654;2023-03-24T15:33:46;16.40;99.90
36660;DHT22;22654;51.054;3.654;2023-03-24T15:36:13;16.20;99.90
36660;DHT22;22654;51.054;3.654;2023-03-24T15:38:45;15.90;99.90
36660;DHT22;22654;51.054;3.654;2023-03-24T15:41:11;15.80;99.90
36660;DHT22;22654;51.054;3.654;2023-03-24T15:43:45;15.70;99.90
36660;DHT22;22654;51.054;3.654;2023-03-24T15:48:49;16.10;99.90
36660;DHT22;22654;51.054;3.654;2023-03-24T15:51:15;16.60;99.90
36660;DHT22;22654;51.054;3.654;2023-03-24T15:53:43;16.90;99.90
36660;DHT22;22654;51.054;3.654;2023-03-24T15:58:51;16.80;99.90
36660;DHT22;22654;51.054;3.654;2023-03-24T16:01:19;16.70;99.90
36660;DHT22;22654;51.054;3.654;2023-03-24T16:03:45;17.00;99.90
36660;DHT22;22654;51.054;3.654;2023-03-24T16:06:14;17.30;99.90
36660;DHT22;22654;51.054;3.654;2023-03-24T16:08:41;17.10;99.90
36660;DHT22;22654;51.054;3.654;2023-03-24T16:11:13;17.10;99.90
36660;DHT22;22654;51.054;3.654;2023-03-24T16:13:40;16.50;99.90
36660;DHT22;22654;51.054;3.654;2023-03-24T16:16:09;16.10;99.90
36660;DHT22;22654;51.054;3.654;2023-03-24T16:18:36;16.00;99.90
36660;DHT22;22654;51.054;3.654;2023-03-24T16:21:12;15.80;99.90
36660;DHT22;22654;51.054;3.654;2023-03-24T16:23:38;15.70;99.90
36660;DHT22;22654;51.054;3.654;2023-03-24T16:26:04;15.50;99.90
36660;DHT22;22654;51.054;3.654;2023-03-24T16:28:30;15.40;99.90
36660;DHT22;22654;51.054;3.654;2023-03-24T16:31:03;15.20;99.90
36660;DHT22;22654;51.054;3.654;2023-03-24T16:33:29;15.20;99.90
36660;DHT22;22654;51.054;3.654;2023-03-24T16:35:55;15.90;99.90
36660;DHT22;22654;51.054;3.654;2023-03-24T16:38:21;16.20;99.90
36660;DHT22;22654;51.054;3.654;2023-03-24T16:40:54;16.50;99.90
36660;DHT22;22654;51.054;3.654;2023-03-24T16:43:21;17.10;99.90
36660;DHT22;22654;51.054;3.654;2023-03-24T16:45:47;17.40;99.90
36660;DHT22;22654;51.054;3.654;2023-03-24T16:48:13;17.10;99.90
36660;DHT22;22654;51.054;3.654;2023-03-24T16:50:40;16.50;99.90
36660;DHT22;22654;51.054;3.654;2023-03-24T16:53:06;16.20;99.90
36660;DHT22;22654;51.054;3.654;2023-03-24T16:55:33;16.10;99.90
36660;DHT22;22654;51.054;3.654;2023-03-24T16:57:59;15.90;99.90
36660;DHT22;22654;51.054;3.654;2023-03-24T17:00:25;15.90;99.90
36660;DHT22;22654;51.054;3.654;2023-03-24T17:02:52;15.70;99.90
36660;DHT22;22654;51.054;3.654;2023-03-24T17:05:19;15.30;99.90
36660;DHT22;22654;51.054;3.654;2023-03-24T17:07:46;14.90;99.90
36660;DHT22;22654;51.054;3.654;2023-03-24T17:10:12;14.90;99.90
36660;DHT22;22654;51.054;3.654;2023-03-24T17:12:38;14.90;99.90
36660;DHT22;22654;51.054;3.654;2023-03-24T17:15:04;14.80;99.90
36660;DHT22;22654;51.054;3.654;2023-03-24T17:17:30;14.70;99.90
36660;DHT22;22654;51.054;3.654;2023-03-24T17:19:56;14.70;99.90
36660;DHT22;22654;51.054;3.654;2023-03-24T17:22:22;14.60;99.90
36660;DHT22;22654;51.054;3.654;2023-03-24T17:24:50;14.20;99.90
36660;DHT22;22654;51.054;3.654;2023-03-24T17:27:17;14.20;99.90
36660;DHT22;22654;51.054;3.654;2023-03-24T17:29:43;14.20;99.90
36660;DHT22;22654;51.054;3.654;2023-03-24T17:32:09;14.10;99.90
36660;DHT22;22654;51.054;3.654;2023-03-24T17:34:35;14.10;99.90
36660;DHT22;22654;51.054;3.654;2023-03-24T17:37:03;14.40;99.90
36660;DHT22;22654;51.054;3.654;2023-03-24T17:39:29;14.30;99.90
36660;DHT22;22654;51.054;3.654;2023-03-24T17:41:54;13.90;99.90
36660;DHT22;22654;51.054;3.654;2023-03-24T17:44:23;13.70;99.90
36660;DHT22;22654;51.054;3.654;2023-03-24T17:46:49;13.50;99.90
36660;DHT22;22654;51.054;3.654;2023-03-24T17:49:15;13.40;99.90
36660;DHT22;22654;51.054;3.654;2023-03-24T17:51:41;13.20;99.90
36660;DHT22;22654;51.054;3.654;2023-03-24T17:54:07;13.20;99.90
36660;DHT22;22654;51.054;3.654;2023-03-24T17:56:36;13.10;99.90
36660;DHT22;22654;51.054;3.654;2023-03-24T17:59:01;13.00;99.90
36660;DHT22;22654;51.054;3.654;2023-03-24T18:01:28;13.00;99.90
36660;DHT22;22654;51.054;3.654;2023-03-24T18:03:54;12.80;99.90
36660;DHT22;22654;51.054;3.654;2023-03-24T18:06:20;12.80;99.90
36660;DHT22;22654;51.054;3.654;2023-03-24T18:08:49;12.60;99.90
36660;DHT22;22654;51.054;3.654;2023-03-24T18:11:15;12.50;99.90
36660;DHT22;22654;51.054;3.654;2023-03-24T18:13:41;12.40;99.90
36660;DHT22;22654;51.054;3.654;2023-03-24T18:16:10;12.30;99.90
36660;DHT22;22654;51.054;3.654;2023-03-24T18:18:36;12.20;99.90
36660;DHT22;22654;51.054;3.654;2023-03-24T18:21:03;12.10;99.90
36660;DHT22;22654;51.054;3.654;2023-03-24T18:23:29;12.00;99.90
36660;DHT22;22654;51.054;3.654;2023-03-24T18:25:57;11.90;99.90
36660;DHT22;22654;51.054;3.654;2023-03-24T18:28:23;12.00;99.90
36660;DHT22;22654;51.054;3.654;2023-03-24T18:30:49;12.10;99.90